createdAt,value
2019-05-29T00:00:02.143Z,16.13
2019-05-29T00:02:28.747Z,16.12
2019-05-29T00:04:55.836Z,16.13
2019-05-29T00:07:22.574Z,16.13
2019-05-29T00:09:49.374Z,16.13
2019-05-29T00:12:19.590Z,16.15
2019-05-29T00:14:45.049Z,16.16
2019-05-29T00:17:12.544Z,16.18
2019-05-29T00:19:39.338Z,16.19
2019-05-29T00:22:06.263Z,16.15
2019-05-29T00:24:32.904Z,16.17
2019-05-29T00:26:59.503Z,16.20
2019-05-29T00:29:26.008Z,16.17
2019-05-29T00:31:52.717Z,16.15
2019-05-29T00:34:19.298Z,16.17
2019-05-29T00:36:49.812Z,16.16
2019-05-29T00:39:16.839Z,16.18
2019-05-29T00:41:44.061Z,16.18
2019-05-29T00:44:11.154Z,16.21
2019-05-29T00:46:37.748Z,16.07
2019-05-29T00:49:04.376Z,16.07
2019-05-29T00:51:31.286Z,16.10
2019-05-29T00:53:57.858Z,16.10
2019-05-29T00:56:24.721Z,16.08
2019-05-29T00:58:51.476Z,16.02
2019-05-29T01:01:18.198Z,15.96
2019-05-29T01:03:46.363Z,15.95
2019-05-29T01:06:13.962Z,15.92
2019-05-29T01:08:40.676Z,15.87
2019-05-29T01:11:07.350Z,15.88
2019-05-29T01:13:34.138Z,15.91
2019-05-29T01:16:01.214Z,15.98
2019-05-29T01:18:27.798Z,15.99
2019-05-29T01:20:54.518Z,16.03
2019-05-29T01:23:22.381Z,15.98
2019-05-29T01:25:49.116Z,15.97
2019-05-29T01:28:16.818Z,15.94
2019-05-29T01:30:43.573Z,15.86
2019-05-29T01:33:10.229Z,15.84
2019-05-29T01:35:36.774Z,15.86
2019-05-29T01:38:03.441Z,15.82
2019-05-29T01:40:30.337Z,15.79
2019-05-29T01:42:57.014Z,15.82
2019-05-29T01:45:25.580Z,15.80
2019-05-29T01:47:52.124Z,15.79
2019-05-29T01:50:19.598Z,15.85
2019-05-29T01:52:46.401Z,15.85
2019-05-29T01:55:13.171Z,15.83
2019-05-29T01:57:39.936Z,15.85
2019-05-29T02:00:09.479Z,15.80
2019-05-29T02:02:36.419Z,15.77
2019-05-29T02:05:06.648Z,15.79
2019-05-29T02:07:33.374Z,15.79
2019-05-29T02:10:00.330Z,15.77
2019-05-29T02:12:26.907Z,15.79
2019-05-29T02:14:53.660Z,15.55
2019-05-29T02:17:21.722Z,15.48
2019-05-29T02:19:48.484Z,15.43
2019-05-29T02:22:15.127Z,15.41
2019-05-29T02:24:41.832Z,15.41
2019-05-29T02:27:08.609Z,15.43
2019-05-29T02:29:35.589Z,15.39
2019-05-29T02:32:02.296Z,15.37
2019-05-29T02:34:29.949Z,15.37
2019-05-29T02:36:56.955Z,15.34
2019-05-29T02:39:25.619Z,15.27
2019-05-29T02:41:52.126Z,15.31
2019-05-29T02:44:19.264Z,15.32
2019-05-29T02:46:45.976Z,15.23
2019-05-29T02:49:12.933Z,15.19
2019-05-29T02:51:39.903Z,15.14
2019-05-29T02:54:06.597Z,15.13
2019-05-29T02:56:33.493Z,15.09
2019-05-29T02:59:00.445Z,15.13
2019-05-29T03:01:27.910Z,15.10
2019-05-29T03:03:55.935Z,15.05
2019-05-29T03:06:24.069Z,14.91
2019-05-29T03:08:50.879Z,14.91
2019-05-29T03:11:17.686Z,14.94
2019-05-29T03:13:44.686Z,14.88
2019-05-29T03:16:12.975Z,14.83
2019-05-29T03:18:40.231Z,14.81
2019-05-29T03:21:07.173Z,14.78
2019-05-29T03:23:35.903Z,14.74
2019-05-29T03:26:02.752Z,14.73
2019-05-29T03:28:30.029Z,14.72
2019-05-29T03:30:57.757Z,14.75
2019-05-29T03:33:27.182Z,14.74
2019-05-29T03:35:52.989Z,14.68
2019-05-29T03:38:19.864Z,14.70
2019-05-29T03:40:46.489Z,14.72
2019-05-29T03:43:15.858Z,14.74
2019-05-29T03:45:42.793Z,14.70
2019-05-29T03:48:09.417Z,14.65
2019-05-29T03:50:36.092Z,14.67
2019-05-29T03:53:02.955Z,14.64
2019-05-29T03:55:31.378Z,14.63
2019-05-29T03:57:58.287Z,14.65
2019-05-29T04:00:29.956Z,14.61
2019-05-29T04:02:53.778Z,14.64
2019-05-29T04:05:20.463Z,14.63
2019-05-29T04:07:47.381Z,14.61
2019-05-29T04:10:27.113Z,14.54
2019-05-29T04:12:54.226Z,14.50
2019-05-29T04:15:20.728Z,14.46
2019-05-29T04:17:47.873Z,14.43
2019-05-29T04:20:15.243Z,14.42
2019-05-29T04:22:44.782Z,14.44
2019-05-29T04:25:12.571Z,14.36
2019-05-29T04:27:41.254Z,14.34
2019-05-29T04:30:08.282Z,14.28
2019-05-29T04:32:36.578Z,14.33
2019-05-29T04:35:04.358Z,14.36
2019-05-29T04:37:32.576Z,14.40
2019-05-29T04:39:59.693Z,14.44
2019-05-29T04:42:26.182Z,14.47
2019-05-29T04:44:53.904Z,14.46
2019-05-29T04:47:20.608Z,14.47
2019-05-29T04:49:47.289Z,14.45
2019-05-29T04:52:14.263Z,14.48
2019-05-29T04:54:41.071Z,14.47
2019-05-29T04:57:07.859Z,14.50
2019-05-29T04:59:35.022Z,14.54
2019-05-29T05:02:01.900Z,14.56
2019-05-29T05:04:29.129Z,14.58
2019-05-29T05:06:55.983Z,14.59
2019-05-29T05:09:22.975Z,14.56
2019-05-29T05:11:49.734Z,14.36
2019-05-29T05:14:16.429Z,14.34
2019-05-29T05:16:45.686Z,14.26
2019-05-29T05:19:12.611Z,14.26
2019-05-29T05:21:40.262Z,14.23
2019-05-29T05:24:07.142Z,14.30
2019-05-29T05:26:34.186Z,14.31
2019-05-29T05:29:01.190Z,14.32
2019-05-29T05:31:27.796Z,14.35
2019-05-29T05:33:54.447Z,14.33
2019-05-29T05:36:21.102Z,14.28
2019-05-29T05:38:47.685Z,14.32
2019-05-29T05:41:14.440Z,14.35
2019-05-29T05:43:41.607Z,14.37
2019-05-29T05:46:08.595Z,14.34
2019-05-29T05:48:35.248Z,14.35
2019-05-29T05:51:02.945Z,14.36
2019-05-29T05:53:29.814Z,14.34
2019-05-29T05:55:56.594Z,14.31
2019-05-29T05:58:23.400Z,14.25
2019-05-29T06:00:50.168Z,14.24
2019-05-29T06:03:16.851Z,14.17
2019-05-29T06:05:43.596Z,14.10
2019-05-29T06:08:10.345Z,14.11
2019-05-29T06:10:38.099Z,14.17
2019-05-29T06:13:05.118Z,14.23
2019-05-29T06:15:32.357Z,14.17
2019-05-29T06:18:19.421Z,14.22
2019-05-29T06:20:28.399Z,14.28
2019-05-29T06:22:55.214Z,14.35
2019-05-29T06:25:22.508Z,14.22
2019-05-29T06:27:52.674Z,14.10
2019-05-29T06:31:27.450Z,14.22
2019-05-29T06:33:54.116Z,14.20
2019-05-29T06:36:22.478Z,14.16
2019-05-29T06:38:49.174Z,14.10
2019-05-29T06:41:28.631Z,13.99
2019-05-29T06:44:30.633Z,14.01
2019-05-29T06:46:57.474Z,14.00
2019-05-29T06:49:23.955Z,13.96
2019-05-29T06:51:52.165Z,13.90
2019-05-29T06:54:18.887Z,13.91
2019-05-29T06:56:45.755Z,13.92
2019-05-29T06:59:12.563Z,13.85
2019-05-29T07:01:41.456Z,13.80
2019-05-29T07:04:12.178Z,13.87
2019-05-29T07:06:37.256Z,13.99
2019-05-29T07:09:05.211Z,13.99
2019-05-29T07:11:31.865Z,13.99
2019-05-29T07:13:58.533Z,14.03
2019-05-29T07:16:40.928Z,14.08
2019-05-29T07:19:23.995Z,13.91
2019-05-29T07:21:22.325Z,13.94
2019-05-29T07:23:49.789Z,13.96
2019-05-29T07:26:16.468Z,13.99
2019-05-29T07:29:02.081Z,14.01
2019-05-29T07:31:11.945Z,14.03
2019-05-29T07:33:39.013Z,13.85
2019-05-29T07:36:06.153Z,13.91
2019-05-29T07:38:32.688Z,13.86
2019-05-29T07:40:59.274Z,13.95
2019-05-29T07:43:26.010Z,14.06
2019-05-29T07:45:52.582Z,14.00
2019-05-29T07:48:20.407Z,13.97
2019-05-29T07:50:48.127Z,13.90
2019-05-29T07:53:17.524Z,13.90
2019-05-29T07:55:44.702Z,13.93
2019-05-29T07:58:11.745Z,13.82
2019-05-29T08:01:02.672Z,13.70
2019-05-29T08:03:07.357Z,13.68
2019-05-29T08:05:34.039Z,13.72
2019-05-29T08:08:07.195Z,13.77
2019-05-29T08:11:11.437Z,13.68
2019-05-29T08:13:39.479Z,13.77
2019-05-29T08:16:06.290Z,13.77
2019-05-29T08:18:32.943Z,13.91
2019-05-29T08:20:59.765Z,13.86
2019-05-29T08:23:26.515Z,13.97
2019-05-29T08:25:53.206Z,13.97
2019-05-29T08:28:19.945Z,13.90
2019-05-29T08:30:51.750Z,13.82
2019-05-29T08:33:15.305Z,14.01
2019-05-29T08:35:42.982Z,14.08
2019-05-29T08:38:09.887Z,14.10
2019-05-29T08:40:36.539Z,14.05
2019-05-29T08:43:03.344Z,13.96
2019-05-29T08:45:30.023Z,13.86
2019-05-29T08:47:56.687Z,13.84
2019-05-29T08:50:23.446Z,13.90
2019-05-29T08:52:50.732Z,13.96
2019-05-29T08:55:17.498Z,14.01
2019-05-29T08:57:44.366Z,13.95
2019-05-29T09:00:12.274Z,13.84
2019-05-29T09:02:40.455Z,13.65
2019-05-29T09:05:08.438Z,13.90
2019-05-29T09:07:35.893Z,13.82
2019-05-29T09:10:05.947Z,13.94
2019-05-29T09:12:32.608Z,13.87
2019-05-29T09:14:59.312Z,13.98
2019-05-29T09:17:26.194Z,13.90
2019-05-29T09:19:52.654Z,13.86
2019-05-29T09:22:20.890Z,13.83
2019-05-29T09:24:47.967Z,13.83
2019-05-29T09:27:15.400Z,13.92
2019-05-29T09:29:42.491Z,13.90
2019-05-29T09:32:09.305Z,13.90
2019-05-29T09:34:36.066Z,13.95
2019-05-29T09:37:03.424Z,13.90
2019-05-29T09:39:30.252Z,13.98
2019-05-29T09:41:56.893Z,13.78
2019-05-29T09:44:33.890Z,13.95
2019-05-29T09:46:52.406Z,14.04
2019-05-29T09:49:20.232Z,14.04
2019-05-29T09:51:47.134Z,13.94
2019-05-29T09:54:13.877Z,14.03
2019-05-29T09:56:40.490Z,14.13
2019-05-29T09:59:07.168Z,14.16
2019-05-29T10:01:33.927Z,14.11
2019-05-29T10:04:03.436Z,14.06
2019-05-29T10:06:29.366Z,13.98
2019-05-29T10:08:56.193Z,14.00
2019-05-29T10:11:23.820Z,13.92
2019-05-29T10:13:50.496Z,13.96
2019-05-29T10:16:17.187Z,13.94
2019-05-29T10:18:44.054Z,13.83
2019-05-29T10:21:10.848Z,13.70
2019-05-29T10:23:37.361Z,13.75
2019-05-29T10:26:05.026Z,13.72
2019-05-29T10:28:49.342Z,13.55
2019-05-29T10:31:03.800Z,13.63
2019-05-29T10:33:30.429Z,13.69
2019-05-29T10:35:57.350Z,13.73
2019-05-29T10:38:24.022Z,13.69
2019-05-29T10:41:00.398Z,13.69
2019-05-29T10:43:33.729Z,13.91
2019-05-29T10:45:49.799Z,14.02
2019-05-29T10:48:16.758Z,14.16
2019-05-29T10:50:43.575Z,14.26
2019-05-29T10:53:10.417Z,14.17
2019-05-29T10:55:37.054Z,14.28
2019-05-29T10:58:03.828Z,14.27
2019-05-29T11:00:30.461Z,14.32
2019-05-29T11:02:57.670Z,14.38
2019-05-29T11:05:24.658Z,14.37
2019-05-29T11:07:52.029Z,14.32
2019-05-29T11:10:21.307Z,14.24
2019-05-29T11:12:48.558Z,14.14
2019-05-29T11:15:21.228Z,14.15
2019-05-29T11:17:47.055Z,13.94
2019-05-29T11:20:15.390Z,13.94
2019-05-29T11:22:42.405Z,13.96
2019-05-29T11:25:21.755Z,14.05
2019-05-29T11:27:38.311Z,14.11
2019-05-29T11:30:08.671Z,14.08
2019-05-29T11:32:35.899Z,14.10
2019-05-29T11:35:04.373Z,14.04
2019-05-29T11:37:31.868Z,14.07
2019-05-29T11:39:59.032Z,14.08
2019-05-29T11:42:27.886Z,14.03
2019-05-29T11:44:55.254Z,13.96
2019-05-29T11:47:22.277Z,13.97
2019-05-29T11:49:49.136Z,14.02
2019-05-29T11:52:24.510Z,13.96
2019-05-29T11:54:44.559Z,13.92
2019-05-29T11:57:11.401Z,13.93
2019-05-29T11:59:38.704Z,14.00
2019-05-29T12:02:05.450Z,14.06
2019-05-29T12:04:33.872Z,14.00
2019-05-29T12:07:01.568Z,14.02
2019-05-29T12:09:33.029Z,13.95
2019-05-29T12:11:58.002Z,13.93
2019-05-29T12:14:24.909Z,13.99
2019-05-29T12:16:51.748Z,13.86
2019-05-29T12:19:18.611Z,13.99
2019-05-29T12:21:45.263Z,13.85
2019-05-29T12:24:11.880Z,13.77
2019-05-29T12:26:38.396Z,13.82
2019-05-29T12:29:11.399Z,13.83
2019-05-29T12:31:33.921Z,13.91
2019-05-29T12:34:13.107Z,13.94
2019-05-29T12:36:29.079Z,13.92
2019-05-29T12:38:57.919Z,13.83
2019-05-29T12:41:26.031Z,13.75
2019-05-29T12:43:53.289Z,13.74
2019-05-29T12:46:20.213Z,13.74
2019-05-29T12:48:46.950Z,13.83
2019-05-29T12:51:13.592Z,13.94
2019-05-29T12:53:40.209Z,14.05
2019-05-29T12:56:07.147Z,14.05
2019-05-29T12:58:34.820Z,14.00
2019-05-29T13:01:02.953Z,14.08
2019-05-29T13:03:30.448Z,14.11
2019-05-29T13:05:58.229Z,14.06
2019-05-29T13:08:25.162Z,14.06
2019-05-29T13:10:52.039Z,14.03
2019-05-29T13:13:18.903Z,14.02
2019-05-29T13:15:45.729Z,13.94
2019-05-29T13:18:12.637Z,13.94
2019-05-29T13:20:39.417Z,13.90
2019-05-29T13:23:07.317Z,13.91
2019-05-29T13:25:34.402Z,13.77
2019-05-29T13:28:01.569Z,13.76
2019-05-29T13:30:29.643Z,13.83
2019-05-29T13:33:02.308Z,13.92
2019-05-29T13:35:25.356Z,13.98
2019-05-29T13:37:52.283Z,13.99
2019-05-29T13:40:19.701Z,14.03
2019-05-29T13:42:46.576Z,13.99
2019-05-29T13:45:18.349Z,14.04
2019-05-29T13:47:43.143Z,13.99
2019-05-29T13:50:12.592Z,13.98
2019-05-29T13:52:38.683Z,13.96
2019-05-29T13:55:07.639Z,13.89
2019-05-29T13:57:34.865Z,13.91
2019-05-29T14:00:18.249Z,13.90
2019-05-29T14:02:33.007Z,13.95
2019-05-29T14:05:00.476Z,13.94
2019-05-29T14:07:27.727Z,13.97
2019-05-29T14:09:54.504Z,13.77
2019-05-29T14:12:21.334Z,13.64
2019-05-29T14:14:48.161Z,13.68
2019-05-29T14:17:15.130Z,13.76
2019-05-29T14:19:41.962Z,13.72
2019-05-29T14:22:09.261Z,13.77
2019-05-29T14:24:36.216Z,13.70
2019-05-29T14:27:03.394Z,13.65
2019-05-29T14:29:30.168Z,13.66
2019-05-29T14:31:56.926Z,13.63
2019-05-29T14:34:23.744Z,13.66
2019-05-29T14:36:50.248Z,13.69
2019-05-29T14:39:16.911Z,13.68
2019-05-29T14:41:43.623Z,13.71
2019-05-29T14:44:10.189Z,13.65
2019-05-29T14:46:36.853Z,13.65
2019-05-29T14:49:04.328Z,13.61
2019-05-29T14:51:31.296Z,13.64
2019-05-29T14:53:58.047Z,13.64
2019-05-29T14:56:25.207Z,13.66
2019-05-29T14:58:51.826Z,13.65
2019-05-29T15:01:18.673Z,13.72
2019-05-29T15:03:45.445Z,13.83
2019-05-29T15:06:13.986Z,13.90
2019-05-29T15:08:40.870Z,13.96
2019-05-29T15:11:07.945Z,13.96
2019-05-29T15:13:34.858Z,13.93
2019-05-29T15:16:01.948Z,13.98
2019-05-29T15:18:29.980Z,13.97
2019-05-29T15:20:56.457Z,14.02
2019-05-29T15:23:23.259Z,14.06
2019-05-29T15:25:50.112Z,14.04
2019-05-29T15:28:17.992Z,13.99
2019-05-29T15:30:44.961Z,14.05
2019-05-29T15:33:12.634Z,14.09
2019-05-29T15:35:39.572Z,14.03
2019-05-29T15:38:06.680Z,14.03
2019-05-29T15:40:33.696Z,14.06
2019-05-29T15:43:00.412Z,14.01
2019-05-29T15:45:27.356Z,14.07
2019-05-29T15:47:59.338Z,14.00
2019-05-29T15:50:27.057Z,14.02
2019-05-29T15:52:53.770Z,14.06
2019-05-29T15:55:29.749Z,14.01
2019-05-29T15:57:49.455Z,13.98
2019-05-29T16:00:17.713Z,13.97
2019-05-29T16:02:48.597Z,13.97
2019-05-29T16:05:15.506Z,14.00
2019-05-29T16:07:42.783Z,14.00
2019-05-29T16:10:14.437Z,14.02
2019-05-29T16:12:40.326Z,14.03
2019-05-29T16:15:09.159Z,14.01
2019-05-29T16:17:35.981Z,14.01
2019-05-29T16:20:08.160Z,14.02
2019-05-29T16:22:34.769Z,14.02
2019-05-29T16:25:02.022Z,14.01
2019-05-29T16:27:31.084Z,14.02
2019-05-29T16:29:57.784Z,13.98
2019-05-29T16:32:24.385Z,13.98
2019-05-29T16:34:51.131Z,13.99
2019-05-29T16:37:17.806Z,14.02
2019-05-29T16:39:44.474Z,13.97
2019-05-29T16:42:11.868Z,13.99
2019-05-29T16:44:38.848Z,13.99
2019-05-29T16:47:05.680Z,14.01
2019-05-29T16:49:32.428Z,14.06
2019-05-29T16:51:59.122Z,14.12
2019-05-29T16:54:25.958Z,14.11
2019-05-29T16:56:52.601Z,14.11
2019-05-29T16:59:19.568Z,14.13
2019-05-29T17:01:46.262Z,14.12
2019-05-29T17:04:13.524Z,14.12
2019-05-29T17:06:40.390Z,14.10
2019-05-29T17:09:08.774Z,14.08
2019-05-29T17:11:35.481Z,14.11
2019-05-29T17:14:02.469Z,14.14
2019-05-29T17:16:29.228Z,14.15
2019-05-29T17:18:56.325Z,14.17
2019-05-29T17:21:23.093Z,14.20
2019-05-29T17:23:49.740Z,14.21
2019-05-29T17:26:16.743Z,14.12
2019-05-29T17:28:43.677Z,14.04
2019-05-29T17:31:10.536Z,13.91
2019-05-29T17:33:37.100Z,13.82
2019-05-29T17:36:03.941Z,13.76
2019-05-29T17:38:30.731Z,13.69
2019-05-29T17:40:57.363Z,13.60
2019-05-29T17:43:26.784Z,13.59
2019-05-29T18:34:03.906Z,13.34
2019-05-29T19:21:38.717Z,13.40
2019-05-29T19:24:06.336Z,13.43
2019-05-29T19:26:36.580Z,13.47
2019-05-29T19:44:32.438Z,13.46
2019-05-29T19:58:36.140Z,13.49
2019-05-29T20:01:03.808Z,13.43
2019-05-29T20:03:30.557Z,13.42
2019-05-29T20:06:06.522Z,13.45
2019-05-29T20:08:41.485Z,13.45
2019-05-29T20:11:08.066Z,13.46
2019-05-29T20:13:35.795Z,13.40
2019-05-29T20:16:16.785Z,13.42
2019-05-29T20:19:40.998Z,13.43
2019-05-29T20:22:07.889Z,13.43
2019-05-29T20:24:34.986Z,13.46
2019-05-29T20:27:01.695Z,13.48
2019-05-29T20:29:28.377Z,13.46
2019-05-29T20:31:56.418Z,13.49
2019-05-29T20:34:23.127Z,13.49
2019-05-29T20:36:50.138Z,13.49
2019-05-29T20:39:16.912Z,13.44
2019-05-29T20:41:43.690Z,13.43
2019-05-29T20:44:10.464Z,13.43
2019-05-29T20:46:38.658Z,13.46
2019-05-29T20:49:42.929Z,13.43
2019-05-29T20:52:09.481Z,13.44
2019-05-29T21:28:22.143Z,13.44
2019-05-29T21:30:49.100Z,13.42
2019-05-29T21:33:44.964Z,13.40
2019-05-29T21:36:14.622Z,13.40
2019-05-29T21:38:42.302Z,13.36
2019-05-29T21:41:09.924Z,13.38
2019-05-29T21:43:44.804Z,13.39
2019-05-29T21:46:43.611Z,13.37
2019-05-29T21:49:10.383Z,13.36
2019-05-29T21:51:41.525Z,13.35
2019-05-29T21:54:10.793Z,13.31
2019-05-29T21:56:57.234Z,13.30
2019-05-29T21:59:23.777Z,13.31
2019-05-29T22:01:50.635Z,13.29
2019-05-29T22:04:25.846Z,13.29
2019-05-29T22:08:02.603Z,13.29
2019-05-29T22:10:29.414Z,13.31
2019-05-29T22:12:56.677Z,13.27
2019-05-29T22:15:26.992Z,13.25
2019-05-29T22:18:01.282Z,13.26
2019-05-29T22:20:30.009Z,13.26
2019-05-29T22:22:57.366Z,13.30
2019-05-29T22:25:24.150Z,13.25
2019-05-29T22:27:51.213Z,13.25
2019-05-29T22:30:19.984Z,13.24
2019-05-29T22:32:47.769Z,13.25
2019-05-29T22:35:56.120Z,13.24
2019-05-29T22:38:28.973Z,13.26
2019-05-29T22:40:56.160Z,13.23
2019-05-29T22:43:22.789Z,13.21
2019-05-29T23:00:38.103Z,13.16
2019-05-29T23:36:42.122Z,13.14
2019-05-29T23:39:08.871Z,13.14
2019-05-29T23:41:35.920Z,13.13
2019-05-29T23:44:03.739Z,13.11
2019-05-29T23:46:30.559Z,13.12
2019-05-29T23:49:03.963Z,13.12
